Terminal Aerodrome Forecast
Issued by NWS Upton, NY

Home | Current Version | Previous Version | Text Only | Print | Product List | Glossary On
Versions: 1 2 3 4 5 6 7 8 9 10 11 12 13 14 15 16 17 18 19 20 21 22 23 24
000
FTUS41 KOKX 210500
TAFJFK
TAF
KJFK 210536Z 2106/2212 20007KT P6SM FEW040 BKN130
     FM211000 15005KT P6SM SCT040 OVC100
      TEMPO 2111/2113 -RA BKN040
     FM211500 16006KT P6SM SCT035 OVC080
      TEMPO 2115/2119 -RA BKN035
     FM212300 03005KT 6SM -RADZ BKN035
     FM220700 03010KT 6SM -RA BKN015=

USA.gov is the U.S. government's official web portal to all federal, state and local government web resources and services.